createdAt,value
2019-02-27T14:05:10.263Z,15.63
2019-02-27T14:07:39.831Z,17.17
2019-02-27T14:10:17.139Z,17.70
2019-02-27T14:12:46.106Z,15.32
2019-02-27T14:15:17.602Z,30.12
2019-02-27T14:17:47.253Z,15.05
2019-02-27T14:20:26.942Z,17.02
2019-02-27T14:22:55.037Z,14.03
2019-02-27T14:25:31.025Z,12.20
2019-02-27T14:27:59.023Z,12.13
2019-02-27T14:30:38.051Z,12.68
2019-02-27T14:33:07.708Z,14.18
2019-02-27T14:38:07.194Z,12.58
2019-02-27T14:40:40.070Z,12.43
2019-02-27T14:45:40.697Z,13.30
2019-02-27T14:50:37.372Z,11.00
2019-02-27T14:53:08.726Z,12.10
2019-02-27T14:58:07.060Z,10.55
2019-02-27T15:00:40.906Z,11.48
2019-02-27T15:03:08.690Z,11.70
2019-02-27T15:05:43.177Z,11.00
2019-02-27T15:08:09.473Z,11.30
2019-02-27T15:10:41.040Z,10.03
2019-02-27T15:13:10.254Z,10.03
2019-02-27T15:15:43.241Z,10.10
2019-02-27T15:18:11.009Z,9.87
2019-02-27T15:20:41.211Z,9.08
2019-02-27T15:23:13.612Z,9.08
2019-02-27T15:25:43.481Z,8.98
2019-02-27T15:28:13.290Z,8.53
2019-02-27T15:30:46.317Z,9.23
2019-02-27T15:33:14.001Z,8.68
2019-02-27T15:35:43.610Z,8.37
2019-02-27T15:38:13.279Z,8.80
2019-02-27T15:40:42.921Z,8.70
2019-02-27T15:43:16.971Z,8.70
2019-02-27T15:45:47.908Z,9.90
2019-02-27T15:48:15.873Z,8.80
2019-02-27T15:50:45.394Z,9.15
2019-02-27T15:53:15.795Z,10.50
2019-02-27T15:55:45.532Z,8.93
2019-02-27T15:58:15.117Z,7.97
2019-02-27T16:00:44.666Z,8.40
2019-02-27T16:03:14.320Z,9.13
2019-02-27T16:05:43.862Z,8.67
2019-02-27T16:08:15.385Z,8.80
2019-02-27T16:10:54.367Z,7.90
2019-02-27T16:13:17.246Z,7.53
2019-02-27T16:15:48.401Z,7.72
2019-02-27T16:18:18.010Z,7.50
2019-02-27T16:20:49.871Z,7.60
2019-02-27T16:23:20.350Z,7.10
2019-02-27T16:25:53.712Z,7.17
2019-02-27T16:28:22.116Z,7.72
2019-02-27T16:30:51.687Z,7.28
2019-02-27T16:33:24.003Z,7.53
2019-02-27T16:35:52.423Z,7.33
2019-02-27T16:38:22.036Z,7.87
2019-02-27T16:40:52.554Z,7.85
2019-02-27T16:43:22.790Z,8.33
2019-02-27T16:45:52.359Z,7.67
2019-02-27T16:48:21.907Z,8.13
2019-02-27T16:50:51.456Z,7.58
2019-02-27T16:53:21.155Z,8.40
2019-02-27T16:55:50.752Z,9.28
2019-02-27T16:58:20.286Z,9.63
2019-02-27T17:00:54.217Z,11.70
2019-02-27T17:03:21.035Z,12.78
2019-02-27T17:05:50.608Z,8.88
2019-02-27T17:08:29.221Z,11.95
2019-02-27T17:11:20.622Z,13.55
2019-02-27T17:13:50.359Z,14.68
2019-02-27T17:16:19.961Z,12.37
2019-02-27T17:18:49.516Z,14.77
2019-02-27T17:21:21.990Z,13.95
2019-02-27T17:23:50.248Z,17.42
2019-02-27T17:26:19.801Z,18.95
2019-02-27T17:28:51.533Z,21.60
2019-02-27T17:31:21.201Z,22.10
2019-02-27T17:33:50.794Z,22.65
2019-02-27T17:36:20.350Z,22.00
2019-02-27T17:38:50.502Z,23.57
2019-02-27T17:41:20.172Z,23.00
2019-02-27T17:43:51.582Z,21.87
2019-02-27T17:46:21.481Z,23.10
2019-02-27T17:48:51.118Z,22.60
2019-02-27T17:51:20.733Z,21.70
2019-02-27T17:53:50.277Z,20.97
2019-02-27T17:56:19.831Z,18.48
2019-02-27T17:58:49.421Z,20.55
2019-02-27T18:01:24.913Z,19.87
2019-02-27T18:03:52.798Z,25.20
2019-02-27T18:06:23.196Z,23.90
2019-02-27T18:08:52.788Z,24.67
2019-02-27T18:11:22.341Z,25.90
2019-02-27T18:13:51.937Z,24.00
2019-02-27T18:16:21.486Z,22.70
2019-02-27T18:18:51.061Z,23.55
2019-02-27T18:21:20.627Z,23.80
2019-02-27T18:23:51.180Z,23.02
2019-02-27T18:26:20.727Z,24.82
2019-02-27T18:28:50.304Z,25.72
2019-02-27T18:31:19.949Z,26.42
2019-02-27T18:33:50.324Z,27.23
2019-02-27T18:36:20.977Z,26.87
2019-02-27T18:38:50.521Z,30.40
2019-02-27T18:41:20.083Z,31.05
2019-02-27T18:43:49.642Z,30.40
2019-02-27T18:46:24.491Z,32.40
2019-02-27T18:48:51.446Z,32.43
2019-02-27T18:51:21.016Z,32.40
2019-02-27T18:53:50.557Z,35.23
2019-02-27T18:56:20.118Z,33.58
2019-02-27T18:58:52.011Z,34.05
2019-02-27T19:01:21.059Z,34.10
2019-02-27T19:03:50.634Z,34.35
2019-02-27T19:06:20.194Z,33.85
2019-02-27T19:08:49.778Z,35.75
2019-02-27T19:11:19.626Z,35.55
2019-02-27T19:13:49.395Z,37.20
2019-02-27T19:16:20.742Z,36.03
2019-02-27T19:18:50.483Z,36.80
2019-02-27T19:21:20.072Z,37.73
2019-02-27T19:23:52.645Z,38.78
2019-02-27T19:26:21.786Z,39.05
2019-02-27T19:28:51.388Z,36.70
2019-02-27T19:31:20.943Z,37.25
2019-02-27T19:33:50.566Z,37.03
2019-02-27T19:36:20.161Z,37.38
2019-02-27T19:38:53.113Z,40.25
2019-02-27T19:41:22.695Z,77.73
2019-02-27T19:43:54.936Z,146.00
2019-02-27T19:46:25.151Z,125.78
2019-02-27T19:48:54.733Z,120.08
2019-02-27T19:51:24.380Z,56.58
2019-02-27T19:53:53.986Z,54.85
2019-02-27T19:56:23.568Z,49.23
2019-02-27T19:58:53.141Z,45.40
2019-02-27T20:01:23.165Z,41.58
2019-02-27T20:03:52.741Z,41.65
2019-02-27T20:06:24.641Z,43.00
2019-02-27T20:08:55.488Z,42.62
2019-02-27T20:11:26.418Z,42.62
2019-02-27T20:14:02.022Z,44.63
2019-02-27T20:16:28.873Z,43.40
2019-02-27T20:18:59.008Z,44.08
2019-02-27T20:21:28.611Z,42.65
2019-02-27T20:24:01.430Z,43.17
2019-02-27T20:26:31.002Z,45.30
2019-02-27T20:29:04.110Z,46.87
2019-02-27T20:31:31.806Z,46.20
2019-02-27T20:34:02.509Z,46.90
2019-02-27T20:36:33.162Z,46.37
2019-02-27T20:39:03.352Z,45.35
2019-02-27T20:41:34.454Z,45.12
2019-02-27T20:44:04.390Z,44.40
2019-02-27T20:46:34.521Z,45.08
2019-02-27T20:49:04.068Z,44.58
2019-02-27T20:51:33.666Z,44.90
2019-02-27T20:54:03.223Z,45.47
2019-02-27T20:56:35.898Z,45.57
2019-02-27T20:59:03.985Z,45.98
2019-02-27T21:01:33.533Z,43.20
2019-02-27T21:04:03.161Z,44.87
2019-02-27T21:06:32.722Z,43.50
2019-02-27T21:09:02.296Z,43.45
2019-02-27T21:11:33.422Z,42.30
2019-02-27T21:14:03.259Z,42.90
2019-02-27T21:16:34.374Z,42.43
2019-02-27T21:19:04.070Z,41.13
2019-02-27T21:21:33.644Z,41.13
2019-02-27T21:24:06.306Z,39.10
2019-02-27T21:26:35.024Z,40.20
2019-02-27T21:29:05.273Z,39.53
2019-02-27T21:31:35.915Z,41.35
2019-02-27T21:34:05.786Z,38.85
2019-02-27T21:36:36.769Z,39.90
2019-02-27T21:39:06.568Z,38.63
2019-02-27T21:41:37.679Z,37.53
2019-02-27T21:44:07.277Z,37.23
2019-02-27T21:46:36.811Z,38.58
2019-02-27T21:49:06.385Z,38.33
2019-02-27T21:51:36.011Z,37.90
2019-02-27T21:54:05.502Z,38.28
2019-02-27T21:56:35.094Z,37.27
2019-02-27T21:59:05.674Z,37.90
2019-02-27T22:01:35.454Z,39.98
2019-02-27T22:04:05.002Z,37.80
2019-02-27T22:06:35.593Z,39.40
2019-02-27T22:09:05.634Z,39.40
2019-02-27T22:11:36.633Z,39.33
2019-02-27T22:14:11.861Z,39.65
2019-02-27T22:16:42.451Z,38.48
2019-02-27T22:19:12.017Z,38.58
2019-02-27T22:21:41.606Z,38.98
2019-02-27T22:24:11.174Z,41.18
2019-02-27T22:26:40.759Z,39.60
2019-02-27T22:29:10.358Z,39.25
2019-02-27T22:31:40.562Z,38.75
2019-02-27T22:34:10.939Z,40.40
2019-02-27T22:36:40.487Z,40.63
2019-02-27T22:39:10.076Z,38.90
2019-02-27T22:41:41.771Z,40.00
2019-02-27T22:44:11.396Z,40.17
2019-02-27T22:46:40.954Z,40.12
2019-02-27T22:49:10.520Z,38.35
2019-02-27T22:51:40.072Z,38.75
2019-02-27T22:54:09.642Z,38.67
2019-02-27T22:56:39.215Z,39.80
2019-02-27T22:59:08.764Z,39.07
2019-02-27T23:01:49.343Z,39.00
2019-02-27T23:04:15.577Z,38.67
2019-02-27T23:06:47.173Z,38.57
2019-02-27T23:09:17.810Z,39.05
2019-02-27T23:11:47.408Z,38.83
2019-02-27T23:14:18.827Z,39.10
2019-02-27T23:16:48.200Z,37.90
2019-02-27T23:19:17.599Z,39.40
2019-02-27T23:21:47.028Z,39.48
2019-02-27T23:24:16.595Z,38.45
2019-02-27T23:26:46.148Z,38.95
2019-02-27T23:29:15.748Z,38.23
2019-02-27T23:31:45.230Z,38.88
2019-02-27T23:34:14.851Z,38.65
2019-02-27T23:36:44.420Z,37.55
2019-02-27T23:39:13.986Z,39.15
2019-02-27T23:41:43.539Z,38.70
2019-02-27T23:44:13.111Z,39.90
2019-02-27T23:46:49.611Z,39.13
2019-02-27T23:49:13.664Z,38.88
2019-02-27T23:51:43.206Z,39.23
2019-02-27T23:54:12.838Z,39.08
2019-02-27T23:56:42.382Z,39.10
2019-02-27T23:59:12.974Z,40.10
